sensor_id;sensor_type;location;lat;lon;timestamp;pressure;altitude;pressure_sealevel;temperature;humidity
43824;BME280;29470;53.550;9.926;2023-01-05T00:01:03;100277.84;;;9.95;100.00
43824;BME280;29470;53.550;9.926;2023-01-05T00:06:15;100278.44;;;9.77;100.00
43824;BME280;29470;53.550;9.926;2023-01-05T00:11:25;100273.06;;;9.61;100.00
43824;BME280;29470;53.550;9.926;2023-01-05T00:16:51;100275.25;;;9.81;100.00
43824;BME280;29470;53.550;9.926;2023-01-05T00:22:14;100279.91;;;9.73;100.00
43824;BME280;29470;53.550;9.926;2023-01-05T00:27:38;100292.94;;;9.88;100.00
43824;BME280;29470;53.550;9.926;2023-01-05T00:32:57;100279.13;;;9.75;100.00
43824;BME280;29470;53.550;9.926;2023-01-05T00:38:06;100285.06;;;9.73;100.00
43824;BME280;29470;53.550;9.926;2023-01-05T00:43:12;100293.13;;;9.92;100.00
43824;BME280;29470;53.550;9.926;2023-01-05T00:48:18;100293.63;;;9.72;100.00
43824;BME280;29470;53.550;9.926;2023-01-05T00:53:25;100297.50;;;9.79;100.00
43824;BME280;29470;53.550;9.926;2023-01-05T00:58:29;100287.78;;;9.88;100.00
43824;BME280;29470;53.550;9.926;2023-01-05T01:03:38;100305.66;;;9.72;100.00
43824;BME280;29470;53.550;9.926;2023-01-05T01:08:41;100308.81;;;9.68;100.00
43824;BME280;29470;53.550;9.926;2023-01-05T01:13:45;100317.94;;;9.63;100.00
43824;BME280;29470;53.550;9.926;2023-01-05T01:18:54;100320.16;;;9.70;100.00
43824;BME280;29470;53.550;9.926;2023-01-05T01:24:04;100327.00;;;9.56;100.00
43824;BME280;29470;53.550;9.926;2023-01-05T01:29:12;100325.91;;;9.79;100.00
43824;BME280;29470;53.550;9.926;2023-01-05T01:34:20;100341.97;;;9.62;100.00
43824;BME280;29470;53.550;9.926;2023-01-05T01:39:24;100342.88;;;9.76;100.00
43824;BME280;29470;53.550;9.926;2023-01-05T01:44:52;100344.09;;;9.67;100.00
43824;BME280;29470;53.550;9.926;2023-01-05T01:50:07;100352.81;;;9.83;100.00
43824;BME280;29470;53.550;9.926;2023-01-05T01:55:13;100355.59;;;9.59;100.00
43824;BME280;29470;53.550;9.926;2023-01-05T02:00:19;100353.91;;;9.60;100.00
43824;BME280;29470;53.550;9.926;2023-01-05T02:05:30;100369.59;;;9.63;100.00
43824;BME280;29470;53.550;9.926;2023-01-05T02:10:44;100366.50;;;9.55;100.00
43824;BME280;29470;53.550;9.926;2023-01-05T02:15:59;100363.56;;;9.62;100.00
43824;BME280;29470;53.550;9.926;2023-01-05T02:21:17;100361.81;;;9.49;100.00
43824;BME280;29470;53.550;9.926;2023-01-05T02:27:00;100363.41;;;9.47;100.00
43824;BME280;29470;53.550;9.926;2023-01-05T02:32:17;100366.25;;;9.38;100.00
43824;BME280;29470;53.550;9.926;2023-01-05T02:37:28;100352.63;;;9.27;100.00
43824;BME280;29470;53.550;9.926;2023-01-05T02:42:37;100364.78;;;9.17;100.00
43824;BME280;29470;53.550;9.926;2023-01-05T02:47:46;100368.50;;;9.34;100.00
43824;BME280;29470;53.550;9.926;2023-01-05T02:52:57;100367.16;;;9.13;100.00
43824;BME280;29470;53.550;9.926;2023-01-05T02:58:06;100372.31;;;9.13;100.00
43824;BME280;29470;53.550;9.926;2023-01-05T03:03:19;100389.69;;;9.16;100.00
43824;BME280;29470;53.550;9.926;2023-01-05T03:08:28;100397.56;;;9.06;100.00
43824;BME280;29470;53.550;9.926;2023-01-05T03:13:42;100383.84;;;9.19;100.00
43824;BME280;29470;53.550;9.926;2023-01-05T03:18:54;100397.34;;;9.03;100.00
43824;BME280;29470;53.550;9.926;2023-01-05T03:24:17;100400.66;;;9.25;100.00
43824;BME280;29470;53.550;9.926;2023-01-05T03:29:44;100398.06;;;8.88;100.00
43824;BME280;29470;53.550;9.926;2023-01-05T03:35:11;100401.38;;;9.11;100.00
43824;BME280;29470;53.550;9.926;2023-01-05T03:40:36;100399.47;;;8.71;100.00
43824;BME280;29470;53.550;9.926;2023-01-05T03:45:41;100408.00;;;8.70;100.00
43824;BME280;29470;53.550;9.926;2023-01-05T03:50:55;100411.13;;;8.66;100.00
43824;BME280;29470;53.550;9.926;2023-01-05T03:56:00;100423.94;;;8.64;100.00
43824;BME280;29470;53.550;9.926;2023-01-05T04:01:04;100428.66;;;8.58;100.00
43824;BME280;29470;53.550;9.926;2023-01-05T04:06:13;100437.03;;;8.55;100.00
43824;BME280;29470;53.550;9.926;2023-01-05T04:11:18;100433.88;;;8.36;100.00
43824;BME280;29470;53.550;9.926;2023-01-05T04:16:30;100442.50;;;8.48;100.00
43824;BME280;29470;53.550;9.926;2023-01-05T04:21:43;100447.09;;;8.29;100.00
43824;BME280;29470;53.550;9.926;2023-01-05T04:26:52;100463.91;;;8.35;100.00
43824;BME280;29470;53.550;9.926;2023-01-05T04:32:00;100464.13;;;8.15;100.00
43824;BME280;29470;53.550;9.926;2023-01-05T04:37:05;100469.28;;;8.15;100.00
43824;BME280;29470;53.550;9.926;2023-01-05T04:42:11;100469.13;;;8.13;100.00
43824;BME280;29470;53.550;9.926;2023-01-05T04:47:19;100464.13;;;8.15;100.00
43824;BME280;29470;53.550;9.926;2023-01-05T04:52:28;100488.09;;;8.25;100.00
43824;BME280;29470;53.550;9.926;2023-01-05T04:57:35;100490.09;;;8.30;100.00
43824;BME280;29470;53.550;9.926;2023-01-05T05:02:40;100503.34;;;8.34;100.00
43824;BME280;29470;53.550;9.926;2023-01-05T05:07:49;100502.56;;;8.47;100.00
43824;BME280;29470;53.550;9.926;2023-01-05T05:12:59;100516.13;;;8.45;100.00
43824;BME280;29470;53.550;9.926;2023-01-05T05:18:04;100511.53;;;8.40;100.00
43824;BME280;29470;53.550;9.926;2023-01-05T05:23:14;100518.81;;;8.46;100.00
43824;BME280;29470;53.550;9.926;2023-01-05T05:28:20;100533.13;;;8.31;100.00
43824;BME280;29470;53.550;9.926;2023-01-05T05:33:33;100546.00;;;8.19;100.00
43824;BME280;29470;53.550;9.926;2023-01-05T05:38:40;100541.41;;;8.26;100.00
43824;BME280;29470;53.550;9.926;2023-01-05T05:43:47;100550.38;;;8.20;100.00
43824;BME280;29470;53.550;9.926;2023-01-05T05:48:55;100553.88;;;8.32;100.00
43824;BME280;29470;53.550;9.926;2023-01-05T05:54:02;100560.84;;;8.33;100.00
43824;BME280;29470;53.550;9.926;2023-01-05T05:59:06;100573.13;;;8.25;100.00
43824;BME280;29470;53.550;9.926;2023-01-05T06:04:13;100578.16;;;8.24;100.00
43824;BME280;29470;53.550;9.926;2023-01-05T06:09:25;100587.06;;;8.39;100.00
43824;BME280;29470;53.550;9.926;2023-01-05T06:14:31;100587.47;;;8.34;100.00
43824;BME280;29470;53.550;9.926;2023-01-05T06:19:35;100619.88;;;8.30;100.00
43824;BME280;29470;53.550;9.926;2023-01-05T06:24:51;100629.56;;;8.45;100.00
43824;BME280;29470;53.550;9.926;2023-01-05T06:29:58;100638.38;;;8.36;100.00
43824;BME280;29470;53.550;9.926;2023-01-05T06:35:10;100628.84;;;8.35;100.00
43824;BME280;29470;53.550;9.926;2023-01-05T06:40:16;100643.63;;;8.38;100.00
43824;BME280;29470;53.550;9.926;2023-01-05T06:45:22;100644.00;;;8.43;100.00
43824;BME280;29470;53.550;9.926;2023-01-05T06:50:33;100649.69;;;8.38;100.00
43824;BME280;29470;53.550;9.926;2023-01-05T06:55:39;100656.66;;;8.17;100.00
43824;BME280;29470;53.550;9.926;2023-01-05T07:00:44;100673.97;;;8.30;100.00
43824;BME280;29470;53.550;9.926;2023-01-05T07:05:48;100671.88;;;8.14;100.00
43824;BME280;29470;53.550;9.926;2023-01-05T07:10:53;100687.16;;;8.23;100.00
43824;BME280;29470;53.550;9.926;2023-01-05T07:15:59;100680.47;;;8.25;100.00
43824;BME280;29470;53.550;9.926;2023-01-05T07:21:08;100696.31;;;8.19;100.00
43824;BME280;29470;53.550;9.926;2023-01-05T07:26:13;100701.66;;;8.33;100.00
43824;BME280;29470;53.550;9.926;2023-01-05T07:31:19;100728.88;;;8.29;100.00
43824;BME280;29470;53.550;9.926;2023-01-05T07:36:22;100729.59;;;8.38;100.00
43824;BME280;29470;53.550;9.926;2023-01-05T07:41:33;100724.78;;;8.43;100.00
43824;BME280;29470;53.550;9.926;2023-01-05T07:46:40;100746.19;;;8.42;100.00
43824;BME280;29470;53.550;9.926;2023-01-05T07:51:46;100734.28;;;8.32;100.00
43824;BME280;29470;53.550;9.926;2023-01-05T07:56:52;100756.22;;;8.49;100.00
43824;BME280;29470;53.550;9.926;2023-01-05T08:02:01;100762.56;;;8.43;100.00
43824;BME280;29470;53.550;9.926;2023-01-05T08:07:07;100774.19;;;8.37;100.00
43824;BME280;29470;53.550;9.926;2023-01-05T08:12:19;100791.44;;;8.38;100.00
43824;BME280;29470;53.550;9.926;2023-01-05T08:17:28;100804.16;;;8.47;100.00
43824;BME280;29470;53.550;9.926;2023-01-05T08:22:41;100811.75;;;8.56;100.00
43824;BME280;29470;53.550;9.926;2023-01-05T08:27:47;100819.00;;;8.72;100.00
43824;BME280;29470;53.550;9.926;2023-01-05T08:33:02;100833.69;;;8.73;100.00
43824;BME280;29470;53.550;9.926;2023-01-05T08:38:16;100833.75;;;8.63;100.00
43824;BME280;29470;53.550;9.926;2023-01-05T08:43:34;100862.41;;;8.45;100.00
43824;BME280;29470;53.550;9.926;2023-01-05T08:48:41;100881.47;;;8.47;100.00
43824;BME280;29470;53.550;9.926;2023-01-05T09:00:00;100919.78;;;8.53;100.00
43824;BME280;29470;53.550;9.926;2023-01-05T09:05:14;100939.97;;;7.95;100.00
43824;BME280;29470;53.550;9.926;2023-01-05T09:10:25;100942.28;;;8.02;100.00
43824;BME280;29470;53.550;9.926;2023-01-05T09:15:51;100949.50;;;8.06;100.00
43824;BME280;29470;53.550;9.926;2023-01-05T09:22:07;100969.56;;;8.21;100.00
43824;BME280;29470;53.550;9.926;2023-01-05T09:27:17;100968.78;;;8.32;100.00
43824;BME280;29470;53.550;9.926;2023-01-05T09:32:27;100980.22;;;8.36;100.00
43824;BME280;29470;53.550;9.926;2023-01-05T09:37:32;100996.63;;;8.16;100.00
43824;BME280;29470;53.550;9.926;2023-01-05T09:42:41;101004.69;;;8.41;100.00
43824;BME280;29470;53.550;9.926;2023-01-05T09:47:57;101021.31;;;8.65;100.00
43824;BME280;29470;53.550;9.926;2023-01-05T09:53:06;101020.97;;;8.50;100.00
43824;BME280;29470;53.550;9.926;2023-01-05T09:58:16;101031.25;;;8.61;100.00
43824;BME280;29470;53.550;9.926;2023-01-05T10:03:43;101034.34;;;8.57;100.00
43824;BME280;29470;53.550;9.926;2023-01-05T10:09:07;101040.03;;;8.95;100.00
43824;BME280;29470;53.550;9.926;2023-01-05T10:14:25;101043.03;;;8.90;100.00
43824;BME280;29470;53.550;9.926;2023-01-05T10:19:35;101054.88;;;8.98;100.00
43824;BME280;29470;53.550;9.926;2023-01-05T10:24:49;101062.94;;;9.13;100.00
43824;BME280;29470;53.550;9.926;2023-01-05T10:30:08;101062.28;;;8.83;100.00
43824;BME280;29470;53.550;9.926;2023-01-05T10:35:38;101066.56;;;9.05;100.00
43824;BME280;29470;53.550;9.926;2023-01-05T10:41:09;101072.22;;;8.68;100.00
43824;BME280;29470;53.550;9.926;2023-01-05T10:46:20;101084.38;;;8.59;100.00
43824;BME280;29470;53.550;9.926;2023-01-05T10:51:44;101086.94;;;8.28;100.00
43824;BME280;29470;53.550;9.926;2023-01-05T10:57:33;101093.25;;;8.31;100.00
43824;BME280;29470;53.550;9.926;2023-01-05T11:02:48;101109.75;;;8.44;100.00
43824;BME280;29470;53.550;9.926;2023-01-05T11:29:26;101130.69;;;9.10;100.00
43824;BME280;29470;53.550;9.926;2023-01-05T11:34:38;101141.34;;;8.82;100.00
43824;BME280;29470;53.550;9.926;2023-01-05T11:39:52;101131.16;;;9.27;100.00
43824;BME280;29470;53.550;9.926;2023-01-05T11:44:59;101150.59;;;8.91;100.00
43824;BME280;29470;53.550;9.926;2023-01-05T11:50:17;101159.28;;;8.71;100.00
43824;BME280;29470;53.550;9.926;2023-01-05T11:55:41;101161.31;;;8.85;100.00
43824;BME280;29470;53.550;9.926;2023-01-05T12:01:12;101165.72;;;8.65;100.00
43824;BME280;29470;53.550;9.926;2023-01-05T12:12:21;101168.66;;;9.01;100.00
43824;BME280;29470;53.550;9.926;2023-01-05T12:17:47;101171.22;;;9.11;100.00
43824;BME280;29470;53.550;9.926;2023-01-05T12:23:15;101176.91;;;9.07;100.00
43824;BME280;29470;53.550;9.926;2023-01-05T12:28:36;101198.59;;;8.89;100.00
43824;BME280;29470;53.550;9.926;2023-01-05T12:34:29;101199.22;;;8.86;100.00
43824;BME280;29470;53.550;9.926;2023-01-05T12:39:53;101201.94;;;8.88;100.00
43824;BME280;29470;53.550;9.926;2023-01-05T12:45:28;101208.25;;;8.91;100.00
43824;BME280;29470;53.550;9.926;2023-01-05T12:50:46;101208.13;;;8.90;100.00
43824;BME280;29470;53.550;9.926;2023-01-05T12:56:06;101226.97;;;8.68;100.00
43824;BME280;29470;53.550;9.926;2023-01-05T13:01:19;101230.31;;;9.08;100.00
43824;BME280;29470;53.550;9.926;2023-01-05T13:06:35;101245.28;;;9.02;100.00
43824;BME280;29470;53.550;9.926;2023-01-05T13:11:47;101246.81;;;9.21;100.00
43824;BME280;29470;53.550;9.926;2023-01-05T13:17:03;101250.88;;;9.50;100.00
43824;BME280;29470;53.550;9.926;2023-01-05T13:22:25;101261.31;;;9.62;97.07
43824;BME280;29470;53.550;9.926;2023-01-05T13:27:32;101273.63;;;9.33;97.45
43824;BME280;29470;53.550;9.926;2023-01-05T13:32:51;101278.25;;;9.48;97.78
43824;BME280;29470;53.550;9.926;2023-01-05T13:38:37;101272.34;;;9.38;98.78
43824;BME280;29470;53.550;9.926;2023-01-05T13:44:15;101275.47;;;8.93;100.00
43824;BME280;29470;53.550;9.926;2023-01-05T13:55:44;101285.91;;;8.94;100.00
43824;BME280;29470;53.550;9.926;2023-01-05T14:01:31;101308.59;;;8.98;100.00
43824;BME280;29470;53.550;9.926;2023-01-05T14:06:39;101311.81;;;8.75;100.00
43824;BME280;29470;53.550;9.926;2023-01-05T14:12:26;101328.84;;;8.83;100.00
43824;BME280;29470;53.550;9.926;2023-01-05T14:17:53;101357.19;;;8.63;100.00
43824;BME280;29470;53.550;9.926;2023-01-05T14:28:52;101361.53;;;8.53;100.00
43824;BME280;29470;53.550;9.926;2023-01-05T14:33:59;101367.59;;;8.54;100.00
43824;BME280;29470;53.550;9.926;2023-01-05T14:39:53;101382.56;;;8.58;100.00
43824;BME280;29470;53.550;9.926;2023-01-05T14:45:21;101393.03;;;8.40;100.00
43824;BME280;29470;53.550;9.926;2023-01-05T14:50:34;101402.69;;;8.43;100.00
43824;BME280;29470;53.550;9.926;2023-01-05T15:01:27;101413.03;;;7.94;100.00
43824;BME280;29470;53.550;9.926;2023-01-05T15:13:27;101427.19;;;8.00;100.00
43824;BME280;29470;53.550;9.926;2023-01-05T15:31:50;101439.06;;;8.17;100.00
43824;BME280;29470;53.550;9.926;2023-01-05T15:37:01;101442.38;;;7.96;100.00
43824;BME280;29470;53.550;9.926;2023-01-05T15:42:18;101452.22;;;8.20;100.00
43824;BME280;29470;53.550;9.926;2023-01-05T15:47:37;101455.13;;;7.95;100.00
43824;BME280;29470;53.550;9.926;2023-01-05T15:52:56;101457.22;;;7.99;100.00
43824;BME280;29470;53.550;9.926;2023-01-05T15:58:11;101472.81;;;8.01;100.00
43824;BME280;29470;53.550;9.926;2023-01-05T16:03:20;101466.91;;;8.21;100.00
43824;BME280;29470;53.550;9.926;2023-01-05T16:08:28;101471.72;;;8.07;100.00
43824;BME280;29470;53.550;9.926;2023-01-05T16:13:36;101472.66;;;8.18;100.00
43824;BME280;29470;53.550;9.926;2023-01-05T16:18:53;101476.50;;;8.13;100.00
43824;BME280;29470;53.550;9.926;2023-01-05T16:24:21;101470.81;;;8.26;100.00
43824;BME280;29470;53.550;9.926;2023-01-05T16:29:35;101482.03;;;7.88;100.00
43824;BME280;29470;53.550;9.926;2023-01-05T16:34:41;101479.97;;;7.75;100.00
43824;BME280;29470;53.550;9.926;2023-01-05T16:39:45;101475.34;;;8.09;100.00
43824;BME280;29470;53.550;9.926;2023-01-05T16:44:52;101488.53;;;8.04;100.00
43824;BME280;29470;53.550;9.926;2023-01-05T16:51:00;101474.50;;;8.00;100.00
43824;BME280;29470;53.550;9.926;2023-01-05T16:56:18;101480.91;;;7.95;100.00
43824;BME280;29470;53.550;9.926;2023-01-05T17:01:33;101493.38;;;7.90;100.00
43824;BME280;29470;53.550;9.926;2023-01-05T17:06:43;101495.59;;;7.96;100.00
43824;BME280;29470;53.550;9.926;2023-01-05T17:11:50;101502.28;;;8.13;100.00
43824;BME280;29470;53.550;9.926;2023-01-05T17:17:01;101512.59;;;8.32;100.00
43824;BME280;29470;53.550;9.926;2023-01-05T17:22:11;101504.78;;;8.22;100.00
43824;BME280;29470;53.550;9.926;2023-01-05T17:27:21;101499.16;;;8.26;100.00
43824;BME280;29470;53.550;9.926;2023-01-05T17:38:13;101504.44;;;7.89;100.00
43824;BME280;29470;53.550;9.926;2023-01-05T17:43:17;101508.47;;;7.96;100.00
43824;BME280;29470;53.550;9.926;2023-01-05T17:48:20;101513.34;;;7.93;100.00
43824;BME280;29470;53.550;9.926;2023-01-05T17:53:24;101503.97;;;8.13;100.00
43824;BME280;29470;53.550;9.926;2023-01-05T17:58:31;101516.47;;;7.80;100.00
43824;BME280;29470;53.550;9.926;2023-01-05T18:04:01;101510.63;;;7.63;100.00
43824;BME280;29470;53.550;9.926;2023-01-05T18:09:31;101519.22;;;7.36;100.00
43824;BME280;29470;53.550;9.926;2023-01-05T18:14:36;101516.53;;;7.34;100.00
43824;BME280;29470;53.550;9.926;2023-01-05T18:20:04;101507.06;;;7.16;100.00
43824;BME280;29470;53.550;9.926;2023-01-05T18:38:25;101519.13;;;6.80;100.00
43824;BME280;29470;53.550;9.926;2023-01-05T18:44:49;101527.28;;;6.67;100.00
43824;BME280;29470;53.550;9.926;2023-01-05T18:50:44;101518.38;;;6.55;100.00
43824;BME280;29470;53.550;9.926;2023-01-05T19:02:05;101513.22;;;6.55;100.00
43824;BME280;29470;53.550;9.926;2023-01-05T19:07:09;101528.19;;;6.59;100.00
43824;BME280;29470;53.550;9.926;2023-01-05T19:12:20;101521.69;;;6.71;100.00
43824;BME280;29470;53.550;9.926;2023-01-05T19:17:27;101514.22;;;6.92;100.00
43824;BME280;29470;53.550;9.926;2023-01-05T19:22:34;101506.00;;;7.14;100.00
43824;BME280;29470;53.550;9.926;2023-01-05T19:27:48;101509.88;;;7.28;100.00
43824;BME280;29470;53.550;9.926;2023-01-05T19:33:07;101520.09;;;7.45;100.00
43824;BME280;29470;53.550;9.926;2023-01-05T19:38:13;101506.19;;;7.71;100.00
43824;BME280;29470;53.550;9.926;2023-01-05T19:43:23;101505.53;;;7.82;100.00
43824;BME280;29470;53.550;9.926;2023-01-05T19:48:45;101502.16;;;7.92;100.00
43824;BME280;29470;53.550;9.926;2023-01-05T19:53:53;101494.91;;;7.88;100.00
43824;BME280;29470;53.550;9.926;2023-01-05T19:58:57;101496.34;;;7.95;100.00
43824;BME280;29470;53.550;9.926;2023-01-05T20:04:20;101490.72;;;7.99;100.00
43824;BME280;29470;53.550;9.926;2023-01-05T20:09:34;101497.41;;;7.97;100.00
43824;BME280;29470;53.550;9.926;2023-01-05T20:14:39;101497.47;;;8.07;100.00
43824;BME280;29470;53.550;9.926;2023-01-05T20:19:46;101507.28;;;8.31;100.00
43824;BME280;29470;53.550;9.926;2023-01-05T20:24:56;101513.69;;;8.25;100.00
43824;BME280;29470;53.550;9.926;2023-01-05T20:29:59;101503.78;;;8.11;100.00
43824;BME280;29470;53.550;9.926;2023-01-05T20:35:04;101514.47;;;8.05;100.00
43824;BME280;29470;53.550;9.926;2023-01-05T20:40:13;101501.44;;;8.04;100.00
43824;BME280;29470;53.550;9.926;2023-01-05T20:45:48;101506.72;;;7.58;100.00
43824;BME280;29470;53.550;9.926;2023-01-05T20:50:52;101496.84;;;7.91;100.00
43824;BME280;29470;53.550;9.926;2023-01-05T20:55:58;101509.13;;;7.85;100.00
43824;BME280;29470;53.550;9.926;2023-01-05T21:01:16;101508.84;;;7.81;100.00
43824;BME280;29470;53.550;9.926;2023-01-05T21:06:35;101514.50;;;7.77;100.00
43824;BME280;29470;53.550;9.926;2023-01-05T21:11:44;101503.78;;;7.92;100.00
43824;BME280;29470;53.550;9.926;2023-01-05T21:16:51;101509.31;;;7.86;100.00
43824;BME280;29470;53.550;9.926;2023-01-05T21:21:56;101518.38;;;7.91;100.00
43824;BME280;29470;53.550;9.926;2023-01-05T21:27:02;101511.59;;;8.02;100.00
43824;BME280;29470;53.550;9.926;2023-01-05T21:32:05;101507.97;;;8.00;100.00
43824;BME280;29470;53.550;9.926;2023-01-05T21:37:09;101497.31;;;8.06;100.00
43824;BME280;29470;53.550;9.926;2023-01-05T21:42:14;101501.72;;;8.07;100.00
43824;BME280;29470;53.550;9.926;2023-01-05T21:47:35;101501.59;;;8.05;100.00
43824;BME280;29470;53.550;9.926;2023-01-05T21:52:39;101500.34;;;8.10;100.00
43824;BME280;29470;53.550;9.926;2023-01-05T21:57:58;101499.13;;;8.07;100.00
43824;BME280;29470;53.550;9.926;2023-01-05T22:03:01;101491.69;;;8.10;100.00
43824;BME280;29470;53.550;9.926;2023-01-05T22:08:06;101470.88;;;7.98;100.00
43824;BME280;29470;53.550;9.926;2023-01-05T22:13:09;101478.13;;;7.83;100.00
43824;BME280;29470;53.550;9.926;2023-01-05T22:18:12;101464.56;;;7.94;100.00
43824;BME280;29470;53.550;9.926;2023-01-05T22:23:16;101461.91;;;8.03;100.00
43824;BME280;29470;53.550;9.926;2023-01-05T22:28:19;101456.75;;;8.03;100.00
43824;BME280;29470;53.550;9.926;2023-01-05T22:33:23;101463.13;;;7.98;100.00
43824;BME280;29470;53.550;9.926;2023-01-05T22:38:28;101460.09;;;8.02;100.00
43824;BME280;29470;53.550;9.926;2023-01-05T22:43:31;101458.28;;;8.01;100.00
43824;BME280;29470;53.550;9.926;2023-01-05T22:48:36;101452.91;;;8.08;100.00
43824;BME280;29470;53.550;9.926;2023-01-05T22:53:41;101449.13;;;8.05;100.00
43824;BME280;29470;53.550;9.926;2023-01-05T22:58:44;101430.41;;;7.97;100.00
43824;BME280;29470;53.550;9.926;2023-01-05T23:03:51;101430.78;;;7.91;100.00
43824;BME280;29470;53.550;9.926;2023-01-05T23:08:56;101425.13;;;7.95;100.00
43824;BME280;29470;53.550;9.926;2023-01-05T23:14:10;101412.53;;;7.79;100.00
43824;BME280;29470;53.550;9.926;2023-01-05T23:19:14;101422.34;;;7.84;100.00
43824;BME280;29470;53.550;9.926;2023-01-05T23:24:19;101415.72;;;7.96;100.00
43824;BME280;29470;53.550;9.926;2023-01-05T23:29:21;101401.94;;;7.95;100.00
43824;BME280;29470;53.550;9.926;2023-01-05T23:34:27;101400.28;;;7.96;100.00
43824;BME280;29470;53.550;9.926;2023-01-05T23:39:31;101394.75;;;8.02;100.00
43824;BME280;29470;53.550;9.926;2023-01-05T23:44:37;101389.34;;;7.79;100.00
43824;BME280;29470;53.550;9.926;2023-01-05T23:49:40;101384.91;;;7.87;100.00
43824;BME280;29470;53.550;9.926;2023-01-05T23:54:44;101380.53;;;7.86;100.00
43824;BME280;29470;53.550;9.926;2023-01-05T23:59:47;101371.19;;;7.78;100.00
